Seven Sisters, United Kingdom
Current Conditions -  °F | °C
As of 7:50 PM on Sunday 23 Nov 2014 (Local Time) from EGLC Reporting Station
Broken Clouds Broken Clouds  
Wind Chill: 44°   Ceiling: 2500
Heat Index: 46°   Visibility: 6mi
Dew Point: 45°   Wind: 5mph
Humidity: 93%   Direction: 290°WNW
Pressure: 30.12"   Gusts: NA
Location:  51.58°N, 0.09°W
Report Text: EGLC 231950Z 29004KT 9999 SCT015 BKN025 08/07 Q1020
Loading
Personal Weather Stations






























Interactive Weather Map New forecast layout! Learn more

10-Day Weather Forecast

Advertisements
Track Severe Weather on mobile